Time;durP1;ratioP1;P1;durP2;ratioP2;P2;SDS_P1;SDS_P2;PMS_P1;PMS_P2;Temp;Humidity;BMP_temperature;BMP_pressure;BME280_temperature;BME280_humidity;BME280_pressure;Samples;Min_cycle;Max_cycle;Signal;HPM_P1;HPM_P2
2022/01/14 00:00:59;;;;;;;9.50;7.70;;;;;;;;;;5133378;27;20505;-79
2022/01/14 00:03:27;;;;;;;14.00;9.63;;;;;;;;;;5133346;27;20444;-79
2022/01/14 00:05:54;;;;;;;29.37;18.50;;;;;;;;;;5133287;27;20576;-79
2022/01/14 00:08:22;;;;;;;33.00;20.77;;;;;;;;;;5133200;27;20841;-79
2022/01/14 00:10:50;;;;;;;17.97;11.77;;;;;;;;;;5132214;27;20472;-79
2022/01/14 00:13:39;;;;;;;19.23;13.10;;;;;;;;;;5132053;27;20440;-79
2022/01/14 00:16:06;;;;;;;19.90;11.73;;;;;;;;;;5133021;27;20428;-79
2022/01/14 00:18:35;;;;;;;19.77;11.70;;;;;;;;;;5133077;27;21017;-79
2022/01/14 00:21:03;;;;;;;20.50;12.77;;;;;;;;;;5133098;27;20448;-79
2022/01/14 00:23:36;;;;;;;18.70;12.43;;;;;;;;;;5133327;27;20444;-79
2022/01/14 00:31:43;;;;;;;19.03;12.07;;;;;;;;;;5131036;27;20549;-78
2022/01/14 00:34:11;;;;;;;14.07;11.00;;;;;;;;;;5131237;28;20477;-78
2022/01/14 00:36:39;;;;;;;16.47;10.57;;;;;;;;;;5132717;27;20480;-80
2022/01/14 00:39:07;;;;;;;14.97;9.87;;;;;;;;;;5131638;28;20497;-78
2022/01/14 00:41:35;;;;;;;12.03;8.93;;;;;;;;;;5133383;27;20836;-79
2022/01/14 00:44:05;;;;;;;13.27;9.70;;;;;;;;;;5133145;27;20523;-78
2022/01/14 00:46:33;;;;;;;13.43;9.50;;;;;;;;;;5132616;27;20479;-78
2022/01/14 00:49:01;;;;;;;15.33;9.47;;;;;;;;;;5136577;27;20436;-78
2022/01/14 00:51:29;;;;;;;13.90;9.83;;;;;;;;;;5136906;27;20444;-79
2022/01/14 00:53:56;;;;;;;12.23;9.13;;;;;;;;;;5136948;27;20532;-79
2022/01/14 00:56:30;;;;;;;35.10;19.27;;;;;;;;;;5136833;27;20451;-79
2022/01/14 00:59:15;;;;;;;39.93;27.13;;;;;;;;;;5137119;27;20501;-79
2022/01/14 01:01:44;;;;;;;26.50;18.80;;;;;;;;;;5135783;27;20826;-79
2022/01/14 01:04:14;;;;;;;15.90;12.17;;;;;;;;;;5137087;27;20453;-79
2022/01/14 01:06:41;;;;;;;11.77;9.23;;;;;;;;;;5137219;27;20816;-78
2022/01/14 01:09:11;;;;;;;16.03;9.50;;;;;;;;;;5136748;27;20436;-78
2022/01/14 01:11:43;;;;;;;12.73;8.00;;;;;;;;;;5136543;27;20829;-78
2022/01/14 01:14:16;;;;;;;10.83;8.83;;;;;;;;;;5136613;27;20493;-78
2022/01/14 01:16:44;;;;;;;12.43;8.07;;;;;;;;;;5136742;27;21023;-78
2022/01/14 01:19:13;;;;;;;20.50;13.83;;;;;;;;;;5136539;27;20519;-79
2022/01/14 01:21:40;;;;;;;29.50;18.03;;;;;;;;;;5136371;27;20531;-78
2022/01/14 01:24:09;;;;;;;20.80;14.63;;;;;;;;;;5136376;27;20534;-78
2022/01/14 01:26:39;;;;;;;18.27;12.03;;;;;;;;;;5136298;27;20444;-78
2022/01/14 01:29:31;;;;;;;13.93;9.23;;;;;;;;;;5136291;27;20959;-78
2022/01/14 01:31:59;;;;;;;10.00;7.80;;;;;;;;;;5136238;27;20431;-78
2022/01/14 01:34:28;;;;;;;14.37;10.73;;;;;;;;;;5136046;27;20443;-78
2022/01/14 01:36:57;;;;;;;34.40;22.90;;;;;;;;;;5136044;27;20497;-78
2022/01/14 01:39:28;;;;;;;33.03;19.80;;;;;;;;;;5134837;27;20501;-78
2022/01/14 01:41:56;;;;;;;26.80;18.13;;;;;;;;;;5134519;27;20447;-78
2022/01/14 01:44:25;;;;;;;37.93;22.00;;;;;;;;;;5136321;27;20456;-79
2022/01/14 01:46:54;;;;;;;65.80;38.43;;;;;;;;;;5135777;27;20475;-78
2022/01/14 01:49:26;;;;;;;37.27;24.00;;;;;;;;;;5135930;27;20528;-79
2022/01/14 01:51:55;;;;;;;28.37;20.23;;;;;;;;;;5135768;27;20493;-78
2022/01/14 01:54:24;;;;;;;18.77;13.03;;;;;;;;;;5134655;27;20515;-78
2022/01/14 01:56:52;;;;;;;14.00;10.57;;;;;;;;;;5135646;27;20467;-78
2022/01/14 01:59:22;;;;;;;12.00;8.63;;;;;;;;;;5135150;27;20440;-78
2022/01/14 02:01:50;;;;;;;21.30;13.47;;;;;;;;;;5135970;27;20459;-79
2022/01/14 02:04:17;;;;;;;27.67;16.77;;;;;;;;;;5135613;27;20450;-79
2022/01/14 02:06:44;;;;;;;24.13;15.20;;;;;;;;;;5135548;27;20509;-79
2022/01/14 02:09:13;;;;;;;15.60;10.67;;;;;;;;;;5135519;27;20834;-78
2022/01/14 02:11:41;;;;;;;16.87;11.00;;;;;;;;;;5135740;27;20877;-78
2022/01/14 02:14:25;;;;;;;52.60;27.23;;;;;;;;;;5135363;27;20448;-78
2022/01/14 02:17:16;;;;;;;24.43;15.70;;;;;;;;;;5135542;27;20432;-78
2022/01/14 02:22:49;;;;;;;13.57;9.23;;;;;;;;;;5135136;27;20440;-78
2022/01/14 02:25:23;;;;;;;13.87;8.13;;;;;;;;;;5135211;27;20518;-78
2022/01/14 02:27:51;;;;;;;11.90;7.73;;;;;;;;;;5135486;27;20482;-78
2022/01/14 02:30:18;;;;;;;14.03;8.63;;;;;;;;;;5135153;27;20527;-78
2022/01/14 02:32:45;;;;;;;12.80;8.03;;;;;;;;;;5135019;27;20440;-78
2022/01/14 02:35:14;;;;;;;13.80;9.43;;;;;;;;;;5135014;27;20505;-78
2022/01/14 02:37:41;;;;;;;16.30;10.03;;;;;;;;;;5134853;27;20476;-78
2022/01/14 02:40:10;;;;;;;13.43;8.40;;;;;;;;;;5134947;27;21009;-78
2022/01/14 02:42:38;;;;;;;29.30;17.60;;;;;;;;;;5134836;27;20531;-78
2022/01/14 02:45:10;;;;;;;25.27;15.53;;;;;;;;;;5134581;27;20536;-78
2022/01/14 02:47:37;;;;;;;16.90;10.90;;;;;;;;;;5135011;27;20511;-78
2022/01/14 02:50:07;;;;;;;27.70;15.83;;;;;;;;;;5134706;27;20452;-79
2022/01/14 02:52:54;;;;;;;13.80;9.27;;;;;;;;;;5134680;27;20428;-78
2022/01/14 02:55:28;;;;;;;10.77;8.67;;;;;;;;;;5134757;27;20801;-78
2022/01/14 02:57:57;;;;;;;25.33;15.67;;;;;;;;;;5134458;27;20460;-79
2022/01/14 03:00:28;;;;;;;19.07;14.33;;;;;;;;;;5133330;27;20532;-79
2022/01/14 03:02:56;;;;;;;96.77;53.40;;;;;;;;;;5134727;27;20447;-78
2022/01/14 03:05:23;;;;;;;77.87;44.90;;;;;;;;;;5134470;27;20937;-78
2022/01/14 03:07:52;;;;;;;51.53;28.77;;;;;;;;;;5134310;27;20531;-79
2022/01/14 03:10:20;;;;;;;44.17;26.60;;;;;;;;;;5133381;27;20439;-78
2022/01/14 03:12:48;;;;;;;55.17;32.93;;;;;;;;;;5134193;27;20435;-78
2022/01/14 03:15:16;;;;;;;20.50;14.83;;;;;;;;;;5134538;27;20463;-79
2022/01/14 03:17:44;;;;;;;12.50;8.40;;;;;;;;;;5134352;27;20859;-78
2022/01/14 03:20:36;;;;;;;12.33;9.43;;;;;;;;;;5134142;27;20451;-78
2022/01/14 03:23:06;;;;;;;15.07;9.50;;;;;;;;;;5133979;27;20460;-79
2022/01/14 03:25:48;;;;;;;15.93;10.20;;;;;;;;;;5134256;27;20436;-78
2022/01/14 03:28:19;;;;;;;17.27;10.27;;;;;;;;;;5134271;27;20913;-78
2022/01/14 03:30:47;;;;;;;16.23;10.07;;;;;;;;;;5134301;27;20425;-78
2022/01/14 03:33:15;;;;;;;17.47;10.40;;;;;;;;;;5133818;27;20439;-78
2022/01/14 03:35:42;;;;;;;20.87;12.70;;;;;;;;;;5133849;27;20555;-78
2022/01/14 03:38:11;;;;;;;16.93;9.40;;;;;;;;;;5133676;27;20995;-78
2022/01/14 03:40:38;;;;;;;13.87;9.03;;;;;;;;;;5133734;27;20441;-78
2022/01/14 03:43:06;;;;;;;15.00;10.27;;;;;;;;;;5133622;27;20944;-78
2022/01/14 03:45:33;;;;;;;11.90;8.47;;;;;;;;;;5133457;27;20501;-78
2022/01/14 03:48:00;;;;;;;14.93;11.37;;;;;;;;;;5133610;27;20936;-78
2022/01/14 03:50:28;;;;;;;22.13;13.67;;;;;;;;;;5133566;27;21005;-78
2022/01/14 03:52:55;;;;;;;32.63;20.33;;;;;;;;;;5133482;27;20436;-79
2022/01/14 03:55:24;;;;;;;27.87;17.97;;;;;;;;;;5133770;27;20467;-79
2022/01/14 03:57:51;;;;;;;26.10;16.90;;;;;;;;;;5133328;27;21014;-78
2022/01/14 04:00:20;;;;;;;37.33;23.03;;;;;;;;;;5133372;27;20451;-79
2022/01/14 04:02:48;;;;;;;39.27;25.13;;;;;;;;;;5133325;27;20531;-79
2022/01/14 04:05:16;;;;;;;38.60;23.13;;;;;;;;;;5133505;27;20440;-78
2022/01/14 04:07:44;;;;;;;23.37;14.33;;;;;;;;;;5133234;27;20464;-78
2022/01/14 04:10:12;;;;;;;44.97;24.80;;;;;;;;;;5117725;27;20444;-79
2022/01/14 04:12:48;;;;;;;25.17;16.87;;;;;;;;;;5111266;27;20453;-79
2022/01/14 04:18:01;;;;;;;16.47;10.93;;;;;;;;;;5111542;28;20452;-79
2022/01/14 04:20:28;;;;;;;16.43;11.90;;;;;;;;;;5111422;28;20524;-79
2022/01/14 04:22:56;;;;;;;22.87;16.60;;;;;;;;;;5110833;28;20449;-79
2022/01/14 04:25:23;;;;;;;23.93;15.63;;;;;;;;;;5111377;28;20438;-79
2022/01/14 04:27:52;;;;;;;15.07;10.50;;;;;;;;;;5117096;27;20497;-80
2022/01/14 04:30:20;;;;;;;11.87;9.17;;;;;;;;;;5131870;27;20987;-78
2022/01/14 04:32:48;;;;;;;13.23;8.77;;;;;;;;;;5131881;27;20941;-79
2022/01/14 04:35:17;;;;;;;15.03;9.27;;;;;;;;;;5131753;27;20798;-79
2022/01/14 04:37:45;;;;;;;19.43;11.23;;;;;;;;;;5131410;27;20523;-79
2022/01/14 04:40:14;;;;;;;23.30;13.87;;;;;;;;;;5131794;27;20479;-80
2022/01/14 04:42:43;;;;;;;19.57;12.93;;;;;;;;;;5130530;28;20436;-79
2022/01/14 04:45:15;;;;;;;14.03;10.33;;;;;;;;;;5131500;27;21061;-80
2022/01/14 04:47:48;;;;;;;12.63;8.97;;;;;;;;;;5131737;27;20436;-79
2022/01/14 04:50:16;;;;;;;11.13;8.70;;;;;;;;;;5131391;27;20477;-80
2022/01/14 04:52:45;;;;;;;12.00;8.33;;;;;;;;;;5131967;27;20875;-79
2022/01/14 04:55:15;;;;;;;11.53;8.47;;;;;;;;;;5130527;28;21005;-79
2022/01/14 04:57:42;;;;;;;13.00;8.67;;;;;;;;;;5130354;28;20452;-79
2022/01/14 05:00:13;;;;;;;12.63;8.53;;;;;;;;;;5131886;27;20451;-78
2022/01/14 05:02:41;;;;;;;17.40;10.13;;;;;;;;;;5131290;27;20417;-79
2022/01/14 05:05:10;;;;;;;12.40;9.27;;;;;;;;;;5131493;27;20432;-78
2022/01/14 05:07:38;;;;;;;12.13;7.77;;;;;;;;;;5131391;27;20870;-79
2022/01/14 05:10:19;;;;;;;12.43;9.17;;;;;;;;;;5131580;27;20444;-78
2022/01/14 05:12:46;;;;;;;9.00;6.60;;;;;;;;;;5131734;27;20432;-79
2022/01/14 05:15:17;;;;;;;9.10;6.43;;;;;;;;;;5130783;27;20475;-78
2022/01/14 05:17:45;;;;;;;9.90;7.47;;;;;;;;;;5131310;27;20435;-78
2022/01/14 05:20:14;;;;;;;10.17;6.40;;;;;;;;;;5131470;27;20429;-79
2022/01/14 05:22:42;;;;;;;10.43;7.80;;;;;;;;;;5131558;27;20520;-78
2022/01/14 05:25:10;;;;;;;9.10;6.73;;;;;;;;;;5131704;27;20494;-78
2022/01/14 05:27:38;;;;;;;10.50;7.80;;;;;;;;;;5131348;27;20471;-79
2022/01/14 05:30:08;;;;;;;11.93;7.50;;;;;;;;;;5130941;27;20465;-78
2022/01/14 05:32:37;;;;;;;15.27;8.43;;;;;;;;;;5131431;27;20424;-78
2022/01/14 05:35:05;;;;;;;12.83;7.87;;;;;;;;;;5134763;27;20440;-78
2022/01/14 05:37:33;;;;;;;14.30;10.17;;;;;;;;;;5117406;27;20441;-78
2022/01/14 05:40:00;;;;;;;15.00;10.33;;;;;;;;;;5113214;28;20472;-78
2022/01/14 05:42:33;;;;;;;19.70;13.60;;;;;;;;;;5112846;28;20456;-78
2022/01/14 05:45:01;;;;;;;12.20;8.10;;;;;;;;;;5113983;28;20471;-78
2022/01/14 05:47:28;;;;;;;12.07;7.57;;;;;;;;;;5114713;27;20508;-78
2022/01/14 05:50:02;;;;;;;12.67;9.37;;;;;;;;;;5115375;27;20441;-78
2022/01/14 05:52:29;;;;;;;21.87;15.37;;;;;;;;;;5115383;28;20444;-78
2022/01/14 05:54:56;;;;;;;19.50;12.50;;;;;;;;;;5114093;28;20437;-78
2022/01/14 05:57:24;;;;;;;13.23;9.57;;;;;;;;;;5115507;28;20444;-78
2022/01/14 05:59:51;;;;;;;13.97;11.27;;;;;;;;;;5115111;28;20469;-78
2022/01/14 06:02:18;;;;;;;13.03;10.03;;;;;;;;;;5115067;28;20957;-78
2022/01/14 06:04:46;;;;;;;12.37;9.40;;;;;;;;;;5115451;28;20901;-78
2022/01/14 06:07:15;;;;;;;15.27;9.53;;;;;;;;;;5114959;27;20441;-78
2022/01/14 06:09:42;;;;;;;12.80;9.50;;;;;;;;;;5115257;28;20433;-78
2022/01/14 06:12:11;;;;;;;10.90;9.40;;;;;;;;;;5114535;28;20510;-78
2022/01/14 06:14:38;;;;;;;12.10;8.10;;;;;;;;;;5114907;28;20522;-78
2022/01/14 06:17:05;;;;;;;12.03;8.07;;;;;;;;;;5115332;28;20545;-78
2022/01/14 06:19:33;;;;;;;11.60;8.30;;;;;;;;;;5114777;28;20476;-79
2022/01/14 06:22:00;;;;;;;10.30;7.03;;;;;;;;;;5115022;28;20524;-78
2022/01/14 06:24:29;;;;;;;9.40;7.03;;;;;;;;;;5114693;28;20452;-78
2022/01/14 06:26:57;;;;;;;8.47;5.97;;;;;;;;;;5114685;28;20437;-79
2022/01/14 06:29:24;;;;;;;10.43;7.23;;;;;;;;;;5114980;28;20441;-79
2022/01/14 06:31:52;;;;;;;9.20;5.70;;;;;;;;;;5114610;28;20972;-79
2022/01/14 06:34:19;;;;;;;9.17;6.17;;;;;;;;;;5114522;28;20441;-78
2022/01/14 06:36:46;;;;;;;9.40;6.60;;;;;;;;;;5114741;28;20528;-78
2022/01/14 06:39:14;;;;;;;25.70;18.10;;;;;;;;;;5114337;28;20530;-78
2022/01/14 06:41:42;;;;;;;52.67;29.03;;;;;;;;;;5114668;28;20885;-78
2022/01/14 06:44:10;;;;;;;30.70;17.50;;;;;;;;;;5114182;28;20898;-79
2022/01/14 06:46:37;;;;;;;30.53;16.70;;;;;;;;;;5114118;28;20481;-78
2022/01/14 06:49:05;;;;;;;20.87;12.53;;;;;;;;;;5114485;28;20516;-78
2022/01/14 06:51:32;;;;;;;17.63;12.40;;;;;;;;;;5114143;28;20501;-78
2022/01/14 06:53:59;;;;;;;19.03;13.63;;;;;;;;;;5114116;28;20437;-78
2022/01/14 06:56:27;;;;;;;65.93;35.07;;;;;;;;;;5114403;28;20449;-78
2022/01/14 06:58:55;;;;;;;85.57;48.47;;;;;;;;;;5113927;27;20571;-78
2022/01/14 07:01:23;;;;;;;39.27;26.67;;;;;;;;;;5113986;28;21025;-78
2022/01/14 07:03:50;;;;;;;21.33;15.50;;;;;;;;;;5113889;28;21006;-78
2022/01/14 07:06:17;;;;;;;14.83;12.33;;;;;;;;;;5113885;28;20477;-79
2022/01/14 07:08:45;;;;;;;16.00;12.70;;;;;;;;;;5113868;27;20528;-79
2022/01/14 07:11:12;;;;;;;19.17;15.13;;;;;;;;;;5113835;28;20969;-79
2022/01/14 07:13:40;;;;;;;58.10;37.03;;;;;;;;;;5113674;28;20438;-79
2022/01/14 07:16:08;;;;;;;25.70;17.47;;;;;;;;;;5114022;28;20468;-79
2022/01/14 07:18:36;;;;;;;36.30;23.00;;;;;;;;;;5113563;28;20283;-79
2022/01/14 07:21:03;;;;;;;41.13;27.20;;;;;;;;;;5113555;28;20441;-79
2022/01/14 07:23:31;;;;;;;27.27;16.93;;;;;;;;;;5113549;28;20503;-79
2022/01/14 07:25:58;;;;;;;26.20;18.13;;;;;;;;;;5113479;28;20862;-80
2022/01/14 07:28:25;;;;;;;28.10;18.40;;;;;;;;;;5113476;28;20195;-80
2022/01/14 07:30:53;;;;;;;31.57;20.67;;;;;;;;;;5113736;28;20877;-80
2022/01/14 07:33:22;;;;;;;12.90;10.33;;;;;;;;;;5113370;28;20286;-81
2022/01/14 07:35:49;;;;;;;15.30;9.90;;;;;;;;;;5113306;28;20202;-81
2022/01/14 07:38:16;;;;;;;20.43;14.67;;;;;;;;;;5113260;28;20195;-81
2022/01/14 07:40:44;;;;;;;28.30;18.30;;;;;;;;;;5113506;28;20306;-81
2022/01/14 07:43:11;;;;;;;21.30;15.50;;;;;;;;;;5113187;28;20579;-82
2022/01/14 07:45:39;;;;;;;18.47;16.03;;;;;;;;;;5112628;28;20231;-83
2022/01/14 07:48:06;;;;;;;18.60;13.73;;;;;;;;;;5112778;28;20283;-83
2022/01/14 07:50:36;;;;;;;19.00;12.17;;;;;;;;;;5111186;28;20191;-83
2022/01/14 07:53:03;;;;;;;24.97;19.20;;;;;;;;;;5112876;28;20582;-83
2022/01/14 07:55:31;;;;;;;19.63;14.37;;;;;;;;;;5113281;28;20202;-83
2022/01/14 07:57:58;;;;;;;18.57;14.43;;;;;;;;;;5112995;28;20558;-83
2022/01/14 08:00:26;;;;;;;18.23;11.53;;;;;;;;;;5112807;28;20229;-83
2022/01/14 08:02:53;;;;;;;14.47;11.00;;;;;;;;;;5112842;28;20679;-83
2022/01/14 08:05:21;;;;;;;20.10;11.73;;;;;;;;;;5112864;28;20195;-83
2022/01/14 08:07:52;;;;;;;14.33;10.87;;;;;;;;;;5112770;28;20664;-84
2022/01/14 08:10:19;;;;;;;20.83;14.03;;;;;;;;;;5113080;28;20184;-84
2022/01/14 08:12:47;;;;;;;19.40;16.17;;;;;;;;;;5113072;28;20223;-84
2022/01/14 08:15:14;;;;;;;24.50;16.93;;;;;;;;;;5113331;28;20238;-84
2022/01/14 08:17:42;;;;;;;16.17;12.67;;;;;;;;;;5112679;28;20602;-84
2022/01/14 08:20:10;;;;;;;27.67;15.30;;;;;;;;;;5112587;28;20265;-84
2022/01/14 08:22:37;;;;;;;21.07;13.47;;;;;;;;;;5112631;28;20290;-85
2022/01/14 08:25:09;;;;;;;19.23;12.50;;;;;;;;;;5112718;28;20241;-84
2022/01/14 08:27:36;;;;;;;17.77;10.10;;;;;;;;;;5112639;28;20274;-85
2022/01/14 08:30:05;;;;;;;17.73;9.73;;;;;;;;;;5112502;28;20278;-85
2022/01/14 08:32:32;;;;;;;12.70;9.90;;;;;;;;;;5112490;28;20195;-85
2022/01/14 08:35:00;;;;;;;10.73;8.97;;;;;;;;;;5112780;28;20203;-85
2022/01/14 08:37:27;;;;;;;48.03;25.23;;;;;;;;;;5112774;28;20630;-84
2022/01/14 08:39:54;;;;;;;16.20;11.13;;;;;;;;;;5112648;28;20243;-84
2022/01/14 08:42:23;;;;;;;9.27;6.67;;;;;;;;;;5112691;28;20199;-84
2022/01/14 08:44:52;;;;;;;9.67;7.23;;;;;;;;;;5112471;28;20298;-85
2022/01/14 08:47:22;;;;;;;10.27;8.50;;;;;;;;;;5112741;28;20648;-84
2022/01/14 08:49:49;;;;;;;11.37;8.40;;;;;;;;;;5112440;28;20198;-84
2022/01/14 08:52:17;;;;;;;9.37;6.77;;;;;;;;;;5112205;28;20238;-84
2022/01/14 08:54:44;;;;;;;7.03;6.00;;;;;;;;;;5112278;28;20199;-84
2022/01/14 08:57:11;;;;;;;11.43;8.10;;;;;;;;;;5112271;28;20272;-84
2022/01/14 08:59:41;;;;;;;7.73;5.83;;;;;;;;;;5112163;28;20747;-83
2022/01/14 09:02:09;;;;;;;5.27;4.00;;;;;;;;;;5112556;28;20256;-84
2022/01/14 09:04:36;;;;;;;6.43;4.17;;;;;;;;;;5112512;28;20627;-83
2022/01/14 09:07:04;;;;;;;5.60;4.63;;;;;;;;;;5112139;28;20191;-84
2022/01/14 09:09:31;;;;;;;6.77;4.63;;;;;;;;;;5114890;28;20745;-84
2022/01/14 09:12:00;;;;;;;4.73;4.33;;;;;;;;;;5116196;28;20235;-84
2022/01/14 09:14:27;;;;;;;6.50;4.27;;;;;;;;;;5116253;28;20203;-84
2022/01/14 09:16:57;;;;;;;5.43;4.80;;;;;;;;;;5116090;28;20244;-84
2022/01/14 09:19:24;;;;;;;7.83;4.40;;;;;;;;;;5116281;28;20306;-84
2022/01/14 09:21:51;;;;;;;6.23;5.13;;;;;;;;;;5115973;28;20235;-84
2022/01/14 09:24:19;;;;;;;10.43;4.53;;;;;;;;;;5115901;28;20198;-84
2022/01/14 09:26:46;;;;;;;6.50;4.13;;;;;;;;;;5115916;27;20230;-84
2022/01/14 09:29:14;;;;;;;4.97;3.80;;;;;;;;;;5116103;28;20195;-84
2022/01/14 09:31:41;;;;;;;8.53;4.50;;;;;;;;;;5115760;28;20200;-84
2022/01/14 09:34:10;;;;;;;12.70;4.77;;;;;;;;;;5115735;28;20278;-84
2022/01/14 09:36:37;;;;;;;4.47;3.60;;;;;;;;;;5115656;28;20286;-84
2022/01/14 09:39:04;;;;;;;4.17;3.77;;;;;;;;;;5115595;28;20222;-84
2022/01/14 09:41:32;;;;;;;7.10;3.83;;;;;;;;;;5115569;28;20242;-84
2022/01/14 09:43:59;;;;;;;3.20;2.90;;;;;;;;;;5115534;28;20687;-84
2022/01/14 09:46:26;;;;;;;7.30;3.30;;;;;;;;;;5115333;28;20235;-84
2022/01/14 09:48:54;;;;;;;7.30;3.53;;;;;;;;;;5115467;28;20278;-84
2022/01/14 09:51:23;;;;;;;4.20;3.50;;;;;;;;;;5115712;28;20195;-84
2022/01/14 09:53:50;;;;;;;16.70;10.80;;;;;;;;;;5115318;28;20283;-84
2022/01/14 09:56:18;;;;;;;13.33;9.50;;;;;;;;;;5115606;28;20205;-83
2022/01/14 09:58:48;;;;;;;8.73;7.83;;;;;;;;;;5115319;28;20234;-84
2022/01/14 10:01:17;;;;;;;7.97;5.93;;;;;;;;;;5115409;28;20691;-84
2022/01/14 10:03:54;;;;;;;7.03;5.47;;;;;;;;;;5115176;27;20223;-84
2022/01/14 10:06:45;;;;;;;3.20;2.80;;;;;;;;;;5115464;28;20183;-84
2022/01/14 10:09:16;;;;;;;4.03;2.90;;;;;;;;;;5109430;28;20198;-83
2022/01/14 10:11:45;;;;;;;3.43;2.70;;;;;;;;;;5115068;28;20184;-83
2022/01/14 10:14:15;;;;;;;4.20;3.40;;;;;;;;;;5115257;28;20233;-84
2022/01/14 10:16:43;;;;;;;2.77;2.53;;;;;;;;;;5115516;28;20184;-84
2022/01/14 10:19:21;;;;;;;6.10;4.60;;;;;;;;;;5114695;28;20274;-84
2022/01/14 10:21:50;;;;;;;5.60;4.40;;;;;;;;;;5115148;27;20634;-84
2022/01/14 10:24:19;;;;;;;10.10;7.80;;;;;;;;;;5114804;28;20195;-84
2022/01/14 10:26:52;;;;;;;10.50;6.93;;;;;;;;;;5114735;28;20191;-84
2022/01/14 10:29:31;;;;;;;4.70;3.63;;;;;;;;;;5114663;27;20231;-84
2022/01/14 10:31:59;;;;;;;4.73;3.93;;;;;;;;;;5114980;28;20268;-84
2022/01/14 10:34:26;;;;;;;8.00;6.23;;;;;;;;;;5114818;28;20223;-84
2022/01/14 10:37:11;;;;;;;4.27;3.87;;;;;;;;;;5114510;28;20196;-84
2022/01/14 10:39:47;;;;;;;6.00;4.50;;;;;;;;;;5114435;27;20279;-84
2022/01/14 10:42:34;;;;;;;4.27;3.67;;;;;;;;;;5114526;28;20183;-85
2022/01/14 10:45:18;;;;;;;4.90;3.47;;;;;;;;;;5114178;28;20231;-84
2022/01/14 10:47:55;;;;;;;3.17;2.83;;;;;;;;;;5114647;28;20535;-85
2022/01/14 10:50:44;;;;;;;6.17;4.67;;;;;;;;;;5114255;28;20175;-84
2022/01/14 10:53:15;;;;;;;50.27;44.77;;;;;;;;;;5108159;27;20252;-84
2022/01/14 10:55:45;;;;;;;8.73;6.33;;;;;;;;;;5114222;27;20223;-84
2022/01/14 10:58:15;;;;;;;10.83;8.80;;;;;;;;;;5114063;28;20206;-84
2022/01/14 11:00:44;;;;;;;27.57;21.70;;;;;;;;;;5114037;28;20210;-84
2022/01/14 11:03:12;;;;;;;15.40;11.57;;;;;;;;;;5114029;28;20227;-84
2022/01/14 11:05:41;;;;;;;30.40;25.57;;;;;;;;;;5114121;28;20298;-85
2022/01/14 11:08:08;;;;;;;17.90;14.17;;;;;;;;;;5113948;28;20196;-85
2022/01/14 11:10:39;;;;;;;24.57;17.67;;;;;;;;;;5113909;28;20195;-85
2022/01/14 11:13:11;;;;;;;18.07;14.57;;;;;;;;;;5113966;28;20339;-85
2022/01/14 11:15:38;;;;;;;25.20;17.57;;;;;;;;;;5114152;28;20188;-84
2022/01/14 11:18:07;;;;;;;23.37;17.40;;;;;;;;;;5113716;28;20589;-85
2022/01/14 11:23:14;;;;;;;19.00;13.70;;;;;;;;;;5113646;28;20700;-85
2022/01/14 11:23:22;;;;;;;24.20;16.43;;;;;;;;;;5113616;28;20256;-85
2022/01/14 11:25:57;;;;;;;16.27;14.27;;;;;;;;;;5113544;28;20199;-85
2022/01/14 11:28:29;;;;;;;17.03;14.63;;;;;;;;;;5113556;28;20187;-84
2022/01/14 11:30:56;;;;;;;15.53;13.17;;;;;;;;;;5112711;28;20663;-84
2022/01/14 11:33:40;;;;;;;20.57;14.90;;;;;;;;;;5113466;28;20195;-85
2022/01/14 11:36:08;;;;;;;23.27;15.53;;;;;;;;;;5113414;28;20186;-85
2022/01/14 11:38:45;;;;;;;21.33;16.70;;;;;;;;;;5113510;28;20195;-85
2022/01/14 11:41:16;;;;;;;17.37;12.20;;;;;;;;;;5113674;28;20293;-85
2022/01/14 11:43:52;;;;;;;17.63;14.67;;;;;;;;;;5113677;28;20184;-85
2022/01/14 11:46:44;;;;;;;21.97;16.47;;;;;;;;;;5112943;28;20231;-85
2022/01/14 12:07:02;;;;;;;15.37;12.37;;;;;;;;;;5152686;27;20534;-89
2022/01/14 12:09:33;;;;;;;17.23;14.40;;;;;;;;;;5152106;27;20729;-88
2022/01/14 12:12:22;;;;;;;15.77;13.77;;;;;;;;;;5151637;27;20280;-87
2022/01/14 12:14:56;;;;;;;18.07;13.40;;;;;;;;;;5151098;27;20230;-86
2022/01/14 12:17:33;;;;;;;17.20;13.30;;;;;;;;;;5151071;27;20232;-87
2022/01/14 12:20:09;;;;;;;19.90;16.33;;;;;;;;;;5151146;27;20194;-87
2022/01/14 12:22:38;;;;;;;17.13;13.73;;;;;;;;;;5151253;27;20178;-87
2022/01/14 12:25:06;;;;;;;17.10;12.40;;;;;;;;;;5150804;27;20228;-87
2022/01/14 12:27:46;;;;;;;22.97;19.37;;;;;;;;;;5150895;27;20194;-87
2022/01/14 12:30:26;;;;;;;17.13;13.90;;;;;;;;;;5150975;27;20229;-87
2022/01/14 12:32:57;;;;;;;17.97;12.93;;;;;;;;;;5150846;27;20205;-87
2022/01/14 12:35:30;;;;;;;21.83;17.03;;;;;;;;;;5150613;27;20238;-87
2022/01/14 12:38:00;;;;;;;18.20;14.23;;;;;;;;;;5151069;27;20191;-87
2022/01/14 12:40:31;;;;;;;33.57;21.57;;;;;;;;;;5151155;27;20264;-88
2022/01/14 12:42:59;;;;;;;19.17;13.87;;;;;;;;;;5150659;27;20655;-87
2022/01/14 12:45:37;;;;;;;16.53;13.77;;;;;;;;;;5150944;27;20281;-87
2022/01/14 12:48:32;;;;;;;42.87;28.67;;;;;;;;;;5150844;27;20273;-87
2022/01/14 12:51:10;;;;;;;21.30;18.77;;;;;;;;;;5150660;27;20309;-87
2022/01/14 12:53:48;;;;;;;37.53;27.37;;;;;;;;;;5150659;27;20566;-87
2022/01/14 12:56:16;;;;;;;20.70;17.97;;;;;;;;;;5150322;27;20255;-87
2022/01/14 12:59:06;;;;;;;28.80;19.87;;;;;;;;;;5150346;27;20221;-87
2022/01/14 13:01:38;;;;;;;47.83;28.37;;;;;;;;;;5150381;27;20183;-87
2022/01/14 13:04:09;;;;;;;119.97;66.07;;;;;;;;;;5150562;27;20617;-88
2022/01/14 13:06:47;;;;;;;53.37;33.33;;;;;;;;;;5143913;27;20310;-88
2022/01/14 13:09:19;;;;;;;29.57;19.73;;;;;;;;;;5136330;27;20274;-87
2022/01/14 13:11:51;;;;;;;66.80;42.97;;;;;;;;;;5136513;27;20214;-87
2022/01/14 13:14:29;;;;;;;36.37;24.77;;;;;;;;;;5136933;27;20623;-87
2022/01/14 13:17:00;;;;;;;22.50;16.80;;;;;;;;;;5136707;27;20562;-88
2022/01/14 13:19:30;;;;;;;40.43;25.30;;;;;;;;;;5136482;27;20611;-87
2022/01/14 13:21:58;;;;;;;47.87;30.73;;;;;;;;;;5136185;27;20174;-87
2022/01/14 13:24:28;;;;;;;57.13;33.57;;;;;;;;;;5135899;27;20234;-87
2022/01/14 13:27:05;;;;;;;42.37;28.73;;;;;;;;;;5136021;27;20269;-87
2022/01/14 13:29:41;;;;;;;60.77;37.73;;;;;;;;;;5135989;27;20171;-87
2022/01/14 13:32:09;;;;;;;40.23;26.93;;;;;;;;;;5135941;27;20631;-87
2022/01/14 13:34:37;;;;;;;44.10;30.87;;;;;;;;;;5135874;27;20278;-87
2022/01/14 13:37:05;;;;;;;37.73;27.13;;;;;;;;;;5135886;27;20282;-87
2022/01/14 13:39:34;;;;;;;34.73;25.47;;;;;;;;;;5136010;27;20247;-87
2022/01/14 13:42:02;;;;;;;31.60;21.37;;;;;;;;;;5135734;27;20610;-88
2022/01/14 13:44:34;;;;;;;24.33;18.03;;;;;;;;;;5136013;27;20191;-87
2022/01/14 13:47:07;;;;;;;24.33;19.13;;;;;;;;;;5135518;27;20194;-88
2022/01/14 13:49:34;;;;;;;37.77;29.00;;;;;;;;;;5135603;27;20187;-87
2022/01/14 13:52:07;;;;;;;19.63;14.63;;;;;;;;;;5135471;27;20194;-87
2022/01/14 13:54:35;;;;;;;20.90;15.97;;;;;;;;;;5135617;27;20191;-88
2022/01/14 13:57:11;;;;;;;27.23;17.27;;;;;;;;;;5135553;27;20598;-87
2022/01/14 13:59:38;;;;;;;30.63;23.27;;;;;;;;;;5135457;27;20197;-87
2022/01/14 14:02:07;;;;;;;29.23;21.03;;;;;;;;;;5135421;27;20254;-87
2022/01/14 14:04:42;;;;;;;33.30;27.03;;;;;;;;;;5135029;27;20190;-88
2022/01/14 14:07:14;;;;;;;52.33;43.60;;;;;;;;;;5135286;27;20222;-88
2022/01/14 14:09:49;;;;;;;71.97;51.23;;;;;;;;;;5135254;27;20671;-87
2022/01/14 14:12:39;;;;;;;36.80;26.77;;;;;;;;;;5135244;27;20182;-87
2022/01/14 14:18:04;;;;;;;55.40;38.87;;;;;;;;;;5134567;27;20182;-88
2022/01/14 14:20:31;;;;;;;60.53;37.70;;;;;;;;;;5134880;27;20727;-87
2022/01/14 14:23:13;;;;;;;44.07;29.90;;;;;;;;;;5134886;27;20202;-87
2022/01/14 14:25:42;;;;;;;26.17;21.93;;;;;;;;;;5135311;27;20194;-87
2022/01/14 14:28:11;;;;;;;100.27;54.20;;;;;;;;;;5134825;27;20201;-87
2022/01/14 14:30:40;;;;;;;37.90;25.97;;;;;;;;;;5134694;27;20195;-87
2022/01/14 14:33:08;;;;;;;19.53;15.53;;;;;;;;;;5134573;27;20194;-87
2022/01/14 14:35:37;;;;;;;21.27;18.57;;;;;;;;;;5134711;27;20242;-88
2022/01/14 14:38:05;;;;;;;23.00;19.30;;;;;;;;;;5134560;27;20195;-88
2022/01/14 14:40:35;;;;;;;22.90;19.87;;;;;;;;;;5134820;27;20278;-87
2022/01/14 14:43:05;;;;;;;19.17;17.13;;;;;;;;;;5134410;27;20248;-87
2022/01/14 14:45:32;;;;;;;45.13;28.73;;;;;;;;;;5134526;27;20194;-87
2022/01/14 14:47:59;;;;;;;30.77;20.77;;;;;;;;;;5134309;27;20197;-87
2022/01/14 14:50:28;;;;;;;30.63;20.30;;;;;;;;;;5134567;27;20190;-87
2022/01/14 14:52:56;;;;;;;52.17;31.33;;;;;;;;;;5134416;27;20202;-87
2022/01/14 14:55:24;;;;;;;38.23;25.70;;;;;;;;;;5134229;27;20218;-87
2022/01/14 14:57:52;;;;;;;29.20;22.63;;;;;;;;;;5134326;27;20208;-87
2022/01/14 15:00:23;;;;;;;22.50;18.87;;;;;;;;;;5134098;27;20191;-87
2022/01/14 15:02:51;;;;;;;34.93;23.13;;;;;;;;;;5134120;27;20318;-87
2022/01/14 15:05:19;;;;;;;42.30;27.70;;;;;;;;;;5133909;27;20299;-87
2022/01/14 15:07:48;;;;;;;30.23;20.83;;;;;;;;;;5133858;27;20191;-87
2022/01/14 15:10:18;;;;;;;48.20;35.73;;;;;;;;;;5133876;27;20237;-87
2022/01/14 15:12:45;;;;;;;56.73;36.73;;;;;;;;;;5134219;27;20602;-87